sensor_id;sensor_type;location;lat;lon;timestamp;temperature;humidity
3994;DHT22;2011;48.238;13.948;2023-07-31T00:01:47;18.60;99.90
3994;DHT22;2011;48.238;13.948;2023-07-31T00:04:15;18.50;99.90
3994;DHT22;2011;48.238;13.948;2023-07-31T00:06:43;18.50;99.90
3994;DHT22;2011;48.238;13.948;2023-07-31T00:09:12;18.50;99.90
3994;DHT22;2011;48.238;13.948;2023-07-31T00:11:39;18.40;99.90
3994;DHT22;2011;48.238;13.948;2023-07-31T00:14:07;18.40;99.90
3994;DHT22;2011;48.238;13.948;2023-07-31T00:16:34;18.40;99.90
3994;DHT22;2011;48.238;13.948;2023-07-31T00:19:02;18.40;99.90
3994;DHT22;2011;48.238;13.948;2023-07-31T00:21:29;18.40;99.90
3994;DHT22;2011;48.238;13.948;2023-07-31T00:23:57;18.40;99.90
3994;DHT22;2011;48.238;13.948;2023-07-31T00:26:26;18.30;99.90
3994;DHT22;2011;48.238;13.948;2023-07-31T00:28:53;18.30;99.90
3994;DHT22;2011;48.238;13.948;2023-07-31T00:31:21;18.30;99.90
3994;DHT22;2011;48.238;13.948;2023-07-31T00:33:49;18.30;99.90
3994;DHT22;2011;48.238;13.948;2023-07-31T00:36:16;18.30;99.90
3994;DHT22;2011;48.238;13.948;2023-07-31T00:38:45;18.30;99.90
3994;DHT22;2011;48.238;13.948;2023-07-31T00:41:12;18.30;99.90
3994;DHT22;2011;48.238;13.948;2023-07-31T00:43:41;18.20;99.90
3994;DHT22;2011;48.238;13.948;2023-07-31T00:46:09;18.20;99.90
3994;DHT22;2011;48.238;13.948;2023-07-31T00:48:37;18.20;99.90
3994;DHT22;2011;48.238;13.948;2023-07-31T00:51:07;18.10;99.90
3994;DHT22;2011;48.238;13.948;2023-07-31T00:53:36;18.10;99.90
3994;DHT22;2011;48.238;13.948;2023-07-31T00:56:04;18.10;99.90
3994;DHT22;2011;48.238;13.948;2023-07-31T00:58:31;18.00;99.90
3994;DHT22;2011;48.238;13.948;2023-07-31T01:01:00;17.90;99.90
3994;DHT22;2011;48.238;13.948;2023-07-31T01:03:28;17.90;99.90
3994;DHT22;2011;48.238;13.948;2023-07-31T01:06:04;17.90;99.90
3994;DHT22;2011;48.238;13.948;2023-07-31T01:08:40;17.90;99.90
3994;DHT22;2011;48.238;13.948;2023-07-31T01:11:14;17.80;99.90
3994;DHT22;2011;48.238;13.948;2023-07-31T01:13:42;17.80;99.90
3994;DHT22;2011;48.238;13.948;2023-07-31T01:16:13;17.80;99.90
3994;DHT22;2011;48.238;13.948;2023-07-31T01:18:40;17.80;99.90
3994;DHT22;2011;48.238;13.948;2023-07-31T01:21:21;17.70;99.90
3994;DHT22;2011;48.238;13.948;2023-07-31T01:24:15;17.80;99.90
3994;DHT22;2011;48.238;13.948;2023-07-31T01:26:52;17.80;99.90
3994;DHT22;2011;48.238;13.948;2023-07-31T01:29:25;17.80;99.90
3994;DHT22;2011;48.238;13.948;2023-07-31T01:31:57;17.70;99.90
3994;DHT22;2011;48.238;13.948;2023-07-31T01:34:26;17.70;99.90
3994;DHT22;2011;48.238;13.948;2023-07-31T01:36:55;17.70;99.90
3994;DHT22;2011;48.238;13.948;2023-07-31T01:39:23;17.70;99.90
3994;DHT22;2011;48.238;13.948;2023-07-31T01:41:52;17.60;99.90
3994;DHT22;2011;48.238;13.948;2023-07-31T01:44:20;17.60;99.90
3994;DHT22;2011;48.238;13.948;2023-07-31T01:46:47;17.50;99.90
3994;DHT22;2011;48.238;13.948;2023-07-31T01:49:15;17.50;99.90
3994;DHT22;2011;48.238;13.948;2023-07-31T01:51:42;17.50;99.90
3994;DHT22;2011;48.238;13.948;2023-07-31T01:54:11;17.50;99.90
3994;DHT22;2011;48.238;13.948;2023-07-31T01:56:39;17.50;99.90
3994;DHT22;2011;48.238;13.948;2023-07-31T01:59:07;17.50;99.90
3994;DHT22;2011;48.238;13.948;2023-07-31T02:01:35;17.40;99.90
3994;DHT22;2011;48.238;13.948;2023-07-31T02:04:02;17.40;99.90
3994;DHT22;2011;48.238;13.948;2023-07-31T02:06:30;17.30;99.90
3994;DHT22;2011;48.238;13.948;2023-07-31T02:08:58;17.30;99.90
3994;DHT22;2011;48.238;13.948;2023-07-31T02:11:25;17.30;99.90
3994;DHT22;2011;48.238;13.948;2023-07-31T02:13:53;17.30;99.90
3994;DHT22;2011;48.238;13.948;2023-07-31T02:16:22;17.30;99.90
3994;DHT22;2011;48.238;13.948;2023-07-31T02:18:49;17.20;99.90
3994;DHT22;2011;48.238;13.948;2023-07-31T02:21:17;17.20;99.90
3994;DHT22;2011;48.238;13.948;2023-07-31T02:23:43;17.20;99.90
3994;DHT22;2011;48.238;13.948;2023-07-31T02:26:10;17.20;99.90
3994;DHT22;2011;48.238;13.948;2023-07-31T02:28:38;17.20;99.90
3994;DHT22;2011;48.238;13.948;2023-07-31T02:31:08;17.10;99.90
3994;DHT22;2011;48.238;13.948;2023-07-31T02:33:37;17.10;99.90
3994;DHT22;2011;48.238;13.948;2023-07-31T02:36:05;17.10;99.90
3994;DHT22;2011;48.238;13.948;2023-07-31T02:38:32;17.10;99.90
3994;DHT22;2011;48.238;13.948;2023-07-31T02:40:59;17.10;99.90
3994;DHT22;2011;48.238;13.948;2023-07-31T02:43:27;17.10;99.90
3994;DHT22;2011;48.238;13.948;2023-07-31T02:45:55;17.10;99.90
3994;DHT22;2011;48.238;13.948;2023-07-31T02:48:22;17.10;99.90
3994;DHT22;2011;48.238;13.948;2023-07-31T02:50:51;17.10;99.90
3994;DHT22;2011;48.238;13.948;2023-07-31T02:53:18;17.00;99.90
3994;DHT22;2011;48.238;13.948;2023-07-31T02:55:46;17.10;99.90
3994;DHT22;2011;48.238;13.948;2023-07-31T02:58:13;17.10;99.90
3994;DHT22;2011;48.238;13.948;2023-07-31T03:00:42;17.00;99.90
3994;DHT22;2011;48.238;13.948;2023-07-31T03:03:10;17.00;99.90
3994;DHT22;2011;48.238;13.948;2023-07-31T03:05:38;17.00;99.90
3994;DHT22;2011;48.238;13.948;2023-07-31T03:08:07;17.00;99.90
3994;DHT22;2011;48.238;13.948;2023-07-31T03:10:34;17.00;99.90
3994;DHT22;2011;48.238;13.948;2023-07-31T03:13:01;17.00;99.90
3994;DHT22;2011;48.238;13.948;2023-07-31T03:15:29;17.00;99.90
3994;DHT22;2011;48.238;13.948;2023-07-31T03:17:56;17.00;99.90
3994;DHT22;2011;48.238;13.948;2023-07-31T03:20:24;16.90;99.90
3994;DHT22;2011;48.238;13.948;2023-07-31T03:22:51;16.90;99.90
3994;DHT22;2011;48.238;13.948;2023-07-31T03:25:20;16.90;99.90
3994;DHT22;2011;48.238;13.948;2023-07-31T03:27:48;16.90;99.90
3994;DHT22;2011;48.238;13.948;2023-07-31T03:30:15;16.80;99.90
3994;DHT22;2011;48.238;13.948;2023-07-31T03:32:44;16.80;99.90
3994;DHT22;2011;48.238;13.948;2023-07-31T03:35:12;16.80;99.90
3994;DHT22;2011;48.238;13.948;2023-07-31T03:37:40;16.70;99.90
3994;DHT22;2011;48.238;13.948;2023-07-31T03:40:08;16.70;99.90
3994;DHT22;2011;48.238;13.948;2023-07-31T03:42:38;16.60;99.90
3994;DHT22;2011;48.238;13.948;2023-07-31T03:45:08;16.60;99.90
3994;DHT22;2011;48.238;13.948;2023-07-31T03:47:35;16.60;99.90
3994;DHT22;2011;48.238;13.948;2023-07-31T03:50:03;16.60;99.90
3994;DHT22;2011;48.238;13.948;2023-07-31T03:52:31;16.60;99.90
3994;DHT22;2011;48.238;13.948;2023-07-31T03:54:58;16.50;99.90
3994;DHT22;2011;48.238;13.948;2023-07-31T03:57:26;16.50;99.90
3994;DHT22;2011;48.238;13.948;2023-07-31T03:59:55;16.50;99.90
3994;DHT22;2011;48.238;13.948;2023-07-31T04:02:22;16.50;99.90
3994;DHT22;2011;48.238;13.948;2023-07-31T04:04:51;16.50;99.90
3994;DHT22;2011;48.238;13.948;2023-07-31T04:07:18;16.50;99.90
3994;DHT22;2011;48.238;13.948;2023-07-31T04:09:46;16.40;99.90
3994;DHT22;2011;48.238;13.948;2023-07-31T04:12:13;16.40;99.90
3994;DHT22;2011;48.238;13.948;2023-07-31T04:14:41;16.40;99.90
3994;DHT22;2011;48.238;13.948;2023-07-31T04:17:10;16.40;99.90
3994;DHT22;2011;48.238;13.948;2023-07-31T04:19:37;16.40;99.90
3994;DHT22;2011;48.238;13.948;2023-07-31T04:22:05;16.40;99.90
3994;DHT22;2011;48.238;13.948;2023-07-31T04:24:32;16.40;99.90
3994;DHT22;2011;48.238;13.948;2023-07-31T04:26:59;16.40;99.90
3994;DHT22;2011;48.238;13.948;2023-07-31T04:29:27;16.40;99.90
3994;DHT22;2011;48.238;13.948;2023-07-31T04:31:54;16.30;99.90
3994;DHT22;2011;48.238;13.948;2023-07-31T04:34:23;16.30;99.90
3994;DHT22;2011;48.238;13.948;2023-07-31T04:36:51;16.30;99.90
3994;DHT22;2011;48.238;13.948;2023-07-31T04:39:18;16.30;99.90
3994;DHT22;2011;48.238;13.948;2023-07-31T04:41:46;16.30;99.90
3994;DHT22;2011;48.238;13.948;2023-07-31T04:44:14;16.40;99.90
3994;DHT22;2011;48.238;13.948;2023-07-31T04:46:41;16.40;99.90
3994;DHT22;2011;48.238;13.948;2023-07-31T04:49:09;16.40;99.90
3994;DHT22;2011;48.238;13.948;2023-07-31T04:51:38;16.50;99.90
3994;DHT22;2011;48.238;13.948;2023-07-31T04:54:05;16.50;99.90
3994;DHT22;2011;48.238;13.948;2023-07-31T04:56:33;16.60;99.90
3994;DHT22;2011;48.238;13.948;2023-07-31T04:59:01;16.70;99.90
3994;DHT22;2011;48.238;13.948;2023-07-31T05:01:28;16.80;99.90
3994;DHT22;2011;48.238;13.948;2023-07-31T05:03:55;16.90;99.90
3994;DHT22;2011;48.238;13.948;2023-07-31T05:06:23;17.00;99.90
3994;DHT22;2011;48.238;13.948;2023-07-31T05:08:52;17.00;99.90
3994;DHT22;2011;48.238;13.948;2023-07-31T05:11:19;17.10;99.90
3994;DHT22;2011;48.238;13.948;2023-07-31T05:13:47;17.10;99.90
3994;DHT22;2011;48.238;13.948;2023-07-31T05:16:14;17.20;99.90
3994;DHT22;2011;48.238;13.948;2023-07-31T05:18:42;17.30;99.90
3994;DHT22;2011;48.238;13.948;2023-07-31T05:21:10;17.40;99.90
3994;DHT22;2011;48.238;13.948;2023-07-31T05:23:37;17.50;99.90
3994;DHT22;2011;48.238;13.948;2023-07-31T05:26:07;17.70;99.90
3994;DHT22;2011;48.238;13.948;2023-07-31T05:28:36;17.70;99.90
3994;DHT22;2011;48.238;13.948;2023-07-31T05:31:04;17.80;99.90
3994;DHT22;2011;48.238;13.948;2023-07-31T05:33:32;17.90;99.90
3994;DHT22;2011;48.238;13.948;2023-07-31T05:36:00;18.00;99.90
3994;DHT22;2011;48.238;13.948;2023-07-31T05:38:27;18.20;99.90
3994;DHT22;2011;48.238;13.948;2023-07-31T05:40:55;18.30;99.90
3994;DHT22;2011;48.238;13.948;2023-07-31T05:43:24;18.30;99.90
3994;DHT22;2011;48.238;13.948;2023-07-31T05:45:52;18.40;99.90
3994;DHT22;2011;48.238;13.948;2023-07-31T05:48:19;18.50;99.90
3994;DHT22;2011;48.238;13.948;2023-07-31T05:50:46;18.60;99.90
3994;DHT22;2011;48.238;13.948;2023-07-31T05:53:14;18.70;99.90
3994;DHT22;2011;48.238;13.948;2023-07-31T05:55:41;18.70;99.90
3994;DHT22;2011;48.238;13.948;2023-07-31T05:58:09;18.90;99.90
3994;DHT22;2011;48.238;13.948;2023-07-31T06:00:38;18.90;99.90
3994;DHT22;2011;48.238;13.948;2023-07-31T06:03:06;19.10;99.90
3994;DHT22;2011;48.238;13.948;2023-07-31T06:05:34;19.20;99.90
3994;DHT22;2011;48.238;13.948;2023-07-31T06:08:02;19.30;99.90
3994;DHT22;2011;48.238;13.948;2023-07-31T06:10:29;19.40;99.90
3994;DHT22;2011;48.238;13.948;2023-07-31T06:12:57;19.60;99.90
3994;DHT22;2011;48.238;13.948;2023-07-31T06:15:24;19.70;99.90
3994;DHT22;2011;48.238;13.948;2023-07-31T06:17:53;19.90;99.90
3994;DHT22;2011;48.238;13.948;2023-07-31T06:20:21;19.90;99.90
3994;DHT22;2011;48.238;13.948;2023-07-31T06:22:48;19.70;99.90
3994;DHT22;2011;48.238;13.948;2023-07-31T06:25:16;19.60;99.90
3994;DHT22;2011;48.238;13.948;2023-07-31T06:27:43;19.50;99.90
3994;DHT22;2011;48.238;13.948;2023-07-31T06:30:11;19.60;99.90
3994;DHT22;2011;48.238;13.948;2023-07-31T06:32:39;19.80;99.90
3994;DHT22;2011;48.238;13.948;2023-07-31T06:35:09;19.90;99.90
3994;DHT22;2011;48.238;13.948;2023-07-31T06:37:36;20.00;99.90
3994;DHT22;2011;48.238;13.948;2023-07-31T06:40:07;20.20;99.90
3994;DHT22;2011;48.238;13.948;2023-07-31T06:42:35;20.30;99.90
3994;DHT22;2011;48.238;13.948;2023-07-31T06:45:03;20.40;99.90
3994;DHT22;2011;48.238;13.948;2023-07-31T06:47:31;20.50;99.90
3994;DHT22;2011;48.238;13.948;2023-07-31T06:49:58;20.60;99.90
3994;DHT22;2011;48.238;13.948;2023-07-31T06:52:27;20.80;99.90
3994;DHT22;2011;48.238;13.948;2023-07-31T06:55:03;20.90;99.90
3994;DHT22;2011;48.238;13.948;2023-07-31T06:57:31;21.10;99.90
3994;DHT22;2011;48.238;13.948;2023-07-31T06:59:59;21.20;99.90
3994;DHT22;2011;48.238;13.948;2023-07-31T07:02:26;21.10;99.90
3994;DHT22;2011;48.238;13.948;2023-07-31T07:04:54;21.10;99.90
3994;DHT22;2011;48.238;13.948;2023-07-31T07:07:21;21.20;99.90
3994;DHT22;2011;48.238;13.948;2023-07-31T07:09:51;21.20;99.90
3994;DHT22;2011;48.238;13.948;2023-07-31T07:12:18;21.10;99.90
3994;DHT22;2011;48.238;13.948;2023-07-31T07:14:46;21.00;99.90
3994;DHT22;2011;48.238;13.948;2023-07-31T07:17:14;20.90;99.90
3994;DHT22;2011;48.238;13.948;2023-07-31T07:19:41;20.80;99.90
3994;DHT22;2011;48.238;13.948;2023-07-31T07:22:09;20.70;99.90
3994;DHT22;2011;48.238;13.948;2023-07-31T07:24:37;20.60;99.90
3994;DHT22;2011;48.238;13.948;2023-07-31T07:27:06;20.60;99.90
3994;DHT22;2011;48.238;13.948;2023-07-31T07:29:34;20.70;99.90
3994;DHT22;2011;48.238;13.948;2023-07-31T07:32:02;20.80;99.90
3994;DHT22;2011;48.238;13.948;2023-07-31T07:34:30;21.00;99.90
3994;DHT22;2011;48.238;13.948;2023-07-31T07:36:57;21.20;99.90
3994;DHT22;2011;48.238;13.948;2023-07-31T07:39:25;21.30;99.30
3994;DHT22;2011;48.238;13.948;2023-07-31T07:41:53;21.40;98.80
3994;DHT22;2011;48.238;13.948;2023-07-31T07:44:22;21.30;99.30
3994;DHT22;2011;48.238;13.948;2023-07-31T07:46:49;21.30;98.70
3994;DHT22;2011;48.238;13.948;2023-07-31T07:49:17;21.10;98.00
3994;DHT22;2011;48.238;13.948;2023-07-31T07:51:44;21.10;98.10
3994;DHT22;2011;48.238;13.948;2023-07-31T07:54:12;21.20;98.20
3994;DHT22;2011;48.238;13.948;2023-07-31T07:56:39;21.20;98.20
3994;DHT22;2011;48.238;13.948;2023-07-31T07:59:07;21.20;97.80
3994;DHT22;2011;48.238;13.948;2023-07-31T08:01:36;21.20;97.40
3994;DHT22;2011;48.238;13.948;2023-07-31T08:04:04;21.20;97.30
3994;DHT22;2011;48.238;13.948;2023-07-31T08:06:31;21.20;97.00
3994;DHT22;2011;48.238;13.948;2023-07-31T08:08:59;21.20;97.60
3994;DHT22;2011;48.238;13.948;2023-07-31T08:11:31;21.30;97.50
3994;DHT22;2011;48.238;13.948;2023-07-31T08:13:59;21.50;97.30
3994;DHT22;2011;48.238;13.948;2023-07-31T08:16:26;21.60;96.50
3994;DHT22;2011;48.238;13.948;2023-07-31T08:18:56;21.90;96.40
3994;DHT22;2011;48.238;13.948;2023-07-31T08:21:23;22.10;97.20
3994;DHT22;2011;48.238;13.948;2023-07-31T08:23:51;22.20;95.80
3994;DHT22;2011;48.238;13.948;2023-07-31T08:26:19;22.30;94.70
3994;DHT22;2011;48.238;13.948;2023-07-31T08:28:47;22.30;94.90
3994;DHT22;2011;48.238;13.948;2023-07-31T08:31:15;22.10;94.90
3994;DHT22;2011;48.238;13.948;2023-07-31T08:33:42;22.20;95.80
3994;DHT22;2011;48.238;13.948;2023-07-31T08:36:11;22.30;95.50
3994;DHT22;2011;48.238;13.948;2023-07-31T08:38:39;22.40;94.30
3994;DHT22;2011;48.238;13.948;2023-07-31T08:41:07;22.20;93.90
3994;DHT22;2011;48.238;13.948;2023-07-31T08:43:36;22.20;94.10
3994;DHT22;2011;48.238;13.948;2023-07-31T08:46:05;22.20;93.90
3994;DHT22;2011;48.238;13.948;2023-07-31T08:48:36;22.30;94.30
3994;DHT22;2011;48.238;13.948;2023-07-31T08:51:04;22.40;93.40
3994;DHT22;2011;48.238;13.948;2023-07-31T08:53:34;22.40;93.10
3994;DHT22;2011;48.238;13.948;2023-07-31T08:56:02;22.40;93.40
3994;DHT22;2011;48.238;13.948;2023-07-31T08:58:31;22.40;93.00
3994;DHT22;2011;48.238;13.948;2023-07-31T09:01:01;22.60;93.20
3994;DHT22;2011;48.238;13.948;2023-07-31T09:03:34;22.60;92.40
3994;DHT22;2011;48.238;13.948;2023-07-31T09:06:03;22.60;93.40
3994;DHT22;2011;48.238;13.948;2023-07-31T09:08:34;22.50;92.60
3994;DHT22;2011;48.238;13.948;2023-07-31T09:11:02;22.50;92.40
3994;DHT22;2011;48.238;13.948;2023-07-31T09:13:32;22.50;92.20
3994;DHT22;2011;48.238;13.948;2023-07-31T09:16:00;22.50;92.90
3994;DHT22;2011;48.238;13.948;2023-07-31T09:18:28;22.60;93.00
3994;DHT22;2011;48.238;13.948;2023-07-31T09:21:03;22.70;92.80
3994;DHT22;2011;48.238;13.948;2023-07-31T09:23:45;22.80;93.60
3994;DHT22;2011;48.238;13.948;2023-07-31T09:26:29;22.90;93.30
3994;DHT22;2011;48.238;13.948;2023-07-31T09:28:57;23.00;91.70
3994;DHT22;2011;48.238;13.948;2023-07-31T09:31:39;23.00;91.60
3994;DHT22;2011;48.238;13.948;2023-07-31T09:34:07;23.10;92.60
3994;DHT22;2011;48.238;13.948;2023-07-31T09:36:40;23.00;91.80
3994;DHT22;2011;48.238;13.948;2023-07-31T09:39:11;22.90;91.00
3994;DHT22;2011;48.238;13.948;2023-07-31T09:41:40;22.90;90.90
3994;DHT22;2011;48.238;13.948;2023-07-31T09:44:07;23.10;91.20
3994;DHT22;2011;48.238;13.948;2023-07-31T09:46:35;23.20;91.50
3994;DHT22;2011;48.238;13.948;2023-07-31T09:49:05;23.40;91.20
3994;DHT22;2011;48.238;13.948;2023-07-31T09:51:33;23.60;91.40
3994;DHT22;2011;48.238;13.948;2023-07-31T09:54:10;23.70;91.60
3994;DHT22;2011;48.238;13.948;2023-07-31T09:56:42;23.90;91.30
3994;DHT22;2011;48.238;13.948;2023-07-31T09:59:12;24.00;90.60
3994;DHT22;2011;48.238;13.948;2023-07-31T10:01:41;24.30;90.90
3994;DHT22;2011;48.238;13.948;2023-07-31T10:04:12;24.40;91.50
3994;DHT22;2011;48.238;13.948;2023-07-31T10:06:42;24.40;90.40
3994;DHT22;2011;48.238;13.948;2023-07-31T10:09:16;24.60;90.70
3994;DHT22;2011;48.238;13.948;2023-07-31T10:11:50;24.80;90.00
3994;DHT22;2011;48.238;13.948;2023-07-31T10:14:22;25.20;90.90
3994;DHT22;2011;48.238;13.948;2023-07-31T10:16:51;25.40;90.00
3994;DHT22;2011;48.238;13.948;2023-07-31T10:19:21;25.30;89.70
3994;DHT22;2011;48.238;13.948;2023-07-31T10:21:49;25.40;86.90
3994;DHT22;2011;48.238;13.948;2023-07-31T10:24:18;25.30;88.40
3994;DHT22;2011;48.238;13.948;2023-07-31T10:26:47;25.20;89.50
3994;DHT22;2011;48.238;13.948;2023-07-31T10:29:16;24.90;87.50
3994;DHT22;2011;48.238;13.948;2023-07-31T10:31:46;24.80;87.60
3994;DHT22;2011;48.238;13.948;2023-07-31T10:34:14;24.60;85.80
3994;DHT22;2011;48.238;13.948;2023-07-31T10:36:42;24.70;88.20
3994;DHT22;2011;48.238;13.948;2023-07-31T10:39:35;25.00;86.00
3994;DHT22;2011;48.238;13.948;2023-07-31T10:42:13;25.20;88.70
3994;DHT22;2011;48.238;13.948;2023-07-31T10:44:44;25.40;84.50
3994;DHT22;2011;48.238;13.948;2023-07-31T10:47:14;25.50;84.20
3994;DHT22;2011;48.238;13.948;2023-07-31T10:49:45;25.70;87.50
3994;DHT22;2011;48.238;13.948;2023-07-31T10:52:14;25.80;84.30
3994;DHT22;2011;48.238;13.948;2023-07-31T10:54:49;25.70;85.30
3994;DHT22;2011;48.238;13.948;2023-07-31T10:57:20;25.70;85.10
3994;DHT22;2011;48.238;13.948;2023-07-31T10:59:48;25.80;84.50
3994;DHT22;2011;48.238;13.948;2023-07-31T11:02:25;25.80;85.20
3994;DHT22;2011;48.238;13.948;2023-07-31T11:05:17;25.80;84.00
3994;DHT22;2011;48.238;13.948;2023-07-31T11:07:48;25.70;83.10
3994;DHT22;2011;48.238;13.948;2023-07-31T11:10:20;25.70;85.20
3994;DHT22;2011;48.238;13.948;2023-07-31T11:12:51;25.60;84.60
3994;DHT22;2011;48.238;13.948;2023-07-31T11:15:19;25.50;83.00
3994;DHT22;2011;48.238;13.948;2023-07-31T11:17:46;25.50;82.80
3994;DHT22;2011;48.238;13.948;2023-07-31T11:20:13;25.40;83.70
3994;DHT22;2011;48.238;13.948;2023-07-31T11:22:41;25.40;84.10
3994;DHT22;2011;48.238;13.948;2023-07-31T11:25:09;25.30;84.20
3994;DHT22;2011;48.238;13.948;2023-07-31T11:27:41;25.30;84.30
3994;DHT22;2011;48.238;13.948;2023-07-31T11:30:10;25.30;84.80
3994;DHT22;2011;48.238;13.948;2023-07-31T11:32:38;25.40;82.80
3994;DHT22;2011;48.238;13.948;2023-07-31T11:35:06;25.50;82.20
3994;DHT22;2011;48.238;13.948;2023-07-31T11:37:41;25.50;82.40
3994;DHT22;2011;48.238;13.948;2023-07-31T11:40:10;25.60;81.80
3994;DHT22;2011;48.238;13.948;2023-07-31T11:42:40;25.50;83.80
3994;DHT22;2011;48.238;13.948;2023-07-31T11:45:09;25.50;80.80
3994;DHT22;2011;48.238;13.948;2023-07-31T11:47:37;25.40;82.30
3994;DHT22;2011;48.238;13.948;2023-07-31T11:50:06;25.30;81.30
3994;DHT22;2011;48.238;13.948;2023-07-31T11:52:42;25.20;81.10
3994;DHT22;2011;48.238;13.948;2023-07-31T11:55:12;25.30;82.10
3994;DHT22;2011;48.238;13.948;2023-07-31T11:57:43;25.30;83.40
3994;DHT22;2011;48.238;13.948;2023-07-31T12:00:38;25.40;82.60
3994;DHT22;2011;48.238;13.948;2023-07-31T12:03:05;25.60;83.40
3994;DHT22;2011;48.238;13.948;2023-07-31T12:05:33;25.80;83.30
3994;DHT22;2011;48.238;13.948;2023-07-31T12:08:00;26.10;84.00
3994;DHT22;2011;48.238;13.948;2023-07-31T12:10:35;26.10;82.30
3994;DHT22;2011;48.238;13.948;2023-07-31T12:13:05;26.10;83.10
3994;DHT22;2011;48.238;13.948;2023-07-31T12:15:35;26.10;81.20
3994;DHT22;2011;48.238;13.948;2023-07-31T12:18:08;26.30;81.60
3994;DHT22;2011;48.238;13.948;2023-07-31T12:20:39;26.50;78.90
3994;DHT22;2011;48.238;13.948;2023-07-31T12:23:07;26.60;80.10
3994;DHT22;2011;48.238;13.948;2023-07-31T12:25:40;26.60;82.60
3994;DHT22;2011;48.238;13.948;2023-07-31T12:28:09;26.70;81.30
3994;DHT22;2011;48.238;13.948;2023-07-31T12:30:39;26.90;82.50
3994;DHT22;2011;48.238;13.948;2023-07-31T12:33:12;26.90;79.60
3994;DHT22;2011;48.238;13.948;2023-07-31T12:35:43;26.50;79.00
3994;DHT22;2011;48.238;13.948;2023-07-31T12:38:12;26.40;78.40
3994;DHT22;2011;48.238;13.948;2023-07-31T12:40:40;26.40;80.30
3994;DHT22;2011;48.238;13.948;2023-07-31T12:43:09;26.60;79.90
3994;DHT22;2011;48.238;13.948;2023-07-31T12:45:36;26.90;79.20
3994;DHT22;2011;48.238;13.948;2023-07-31T12:48:04;27.00;79.60
3994;DHT22;2011;48.238;13.948;2023-07-31T12:50:31;27.00;78.90
3994;DHT22;2011;48.238;13.948;2023-07-31T12:52:59;26.80;78.30
3994;DHT22;2011;48.238;13.948;2023-07-31T12:55:26;26.70;80.20
3994;DHT22;2011;48.238;13.948;2023-07-31T12:57:53;26.70;78.90
3994;DHT22;2011;48.238;13.948;2023-07-31T13:00:22;26.80;78.30
3994;DHT22;2011;48.238;13.948;2023-07-31T13:02:49;26.80;79.00
3994;DHT22;2011;48.238;13.948;2023-07-31T13:05:16;26.90;77.80
3994;DHT22;2011;48.238;13.948;2023-07-31T13:07:45;27.00;76.60
3994;DHT22;2011;48.238;13.948;2023-07-31T13:10:12;27.20;77.00
3994;DHT22;2011;48.238;13.948;2023-07-31T13:12:39;27.60;76.60
3994;DHT22;2011;48.238;13.948;2023-07-31T13:15:07;27.80;77.30
3994;DHT22;2011;48.238;13.948;2023-07-31T13:17:36;27.80;76.30
3994;DHT22;2011;48.238;13.948;2023-07-31T13:20:04;27.60;76.80
3994;DHT22;2011;48.238;13.948;2023-07-31T13:22:32;27.50;74.60
3994;DHT22;2011;48.238;13.948;2023-07-31T13:24:59;27.20;74.30
3994;DHT22;2011;48.238;13.948;2023-07-31T13:27:26;27.00;73.00
3994;DHT22;2011;48.238;13.948;2023-07-31T13:29:53;27.00;72.60
3994;DHT22;2011;48.238;13.948;2023-07-31T13:32:21;27.20;74.50
3994;DHT22;2011;48.238;13.948;2023-07-31T13:34:51;27.30;74.30
3994;DHT22;2011;48.238;13.948;2023-07-31T13:37:18;27.50;75.30
3994;DHT22;2011;48.238;13.948;2023-07-31T13:39:46;27.60;73.00
3994;DHT22;2011;48.238;13.948;2023-07-31T13:42:13;27.80;73.40
3994;DHT22;2011;48.238;13.948;2023-07-31T13:44:40;27.90;72.10
3994;DHT22;2011;48.238;13.948;2023-07-31T13:47:08;27.80;73.40
3994;DHT22;2011;48.238;13.948;2023-07-31T13:49:36;27.80;75.20
3994;DHT22;2011;48.238;13.948;2023-07-31T13:52:06;27.60;73.00
3994;DHT22;2011;48.238;13.948;2023-07-31T13:54:33;27.80;76.60
3994;DHT22;2011;48.238;13.948;2023-07-31T13:57:00;27.90;74.20
3994;DHT22;2011;48.238;13.948;2023-07-31T13:59:27;28.00;75.70
3994;DHT22;2011;48.238;13.948;2023-07-31T14:01:54;28.20;74.70
3994;DHT22;2011;48.238;13.948;2023-07-31T14:04:22;28.50;74.80
3994;DHT22;2011;48.238;13.948;2023-07-31T14:06:49;28.60;72.50
3994;DHT22;2011;48.238;13.948;2023-07-31T14:09:18;28.70;74.10
3994;DHT22;2011;48.238;13.948;2023-07-31T14:11:45;28.70;71.90
3994;DHT22;2011;48.238;13.948;2023-07-31T14:14:13;28.80;72.00
3994;DHT22;2011;48.238;13.948;2023-07-31T14:16:40;28.90;71.20
3994;DHT22;2011;48.238;13.948;2023-07-31T14:19:08;29.00;70.00
3994;DHT22;2011;48.238;13.948;2023-07-31T14:21:36;28.90;68.70
3994;DHT22;2011;48.238;13.948;2023-07-31T14:24:04;28.70;69.10
3994;DHT22;2011;48.238;13.948;2023-07-31T14:26:33;28.40;69.50
3994;DHT22;2011;48.238;13.948;2023-07-31T14:29:00;28.40;70.40
3994;DHT22;2011;48.238;13.948;2023-07-31T14:31:28;28.40;70.80
3994;DHT22;2011;48.238;13.948;2023-07-31T14:33:55;28.60;71.30
3994;DHT22;2011;48.238;13.948;2023-07-31T14:36:23;28.40;70.60
3994;DHT22;2011;48.238;13.948;2023-07-31T14:38:50;28.30;71.00
3994;DHT22;2011;48.238;13.948;2023-07-31T14:41:17;28.20;68.90
3994;DHT22;2011;48.238;13.948;2023-07-31T14:43:46;27.90;70.10
3994;DHT22;2011;48.238;13.948;2023-07-31T14:46:22;27.80;70.00
3994;DHT22;2011;48.238;13.948;2023-07-31T14:48:53;27.70;69.30
3994;DHT22;2011;48.238;13.948;2023-07-31T14:51:21;27.70;68.30
3994;DHT22;2011;48.238;13.948;2023-07-31T14:53:48;27.90;69.50
3994;DHT22;2011;48.238;13.948;2023-07-31T14:56:16;28.10;70.20
3994;DHT22;2011;48.238;13.948;2023-07-31T14:58:43;28.00;69.80
3994;DHT22;2011;48.238;13.948;2023-07-31T15:01:12;28.00;69.70
3994;DHT22;2011;48.238;13.948;2023-07-31T15:03:39;28.10;70.10
3994;DHT22;2011;48.238;13.948;2023-07-31T15:06:05;28.20;69.70
3994;DHT22;2011;48.238;13.948;2023-07-31T15:08:33;28.40;68.40
3994;DHT22;2011;48.238;13.948;2023-07-31T15:11:02;28.70;70.00
3994;DHT22;2011;48.238;13.948;2023-07-31T15:13:29;28.70;67.50
3994;DHT22;2011;48.238;13.948;2023-07-31T15:15:57;28.70;67.70
3994;DHT22;2011;48.238;13.948;2023-07-31T15:18:26;28.80;67.60
3994;DHT22;2011;48.238;13.948;2023-07-31T15:20:54;29.00;67.10
3994;DHT22;2011;48.238;13.948;2023-07-31T15:23:23;28.90;67.30
3994;DHT22;2011;48.238;13.948;2023-07-31T15:25:52;29.00;69.60
3994;DHT22;2011;48.238;13.948;2023-07-31T15:28:20;29.10;68.80
3994;DHT22;2011;48.238;13.948;2023-07-31T15:30:48;29.20;68.20
3994;DHT22;2011;48.238;13.948;2023-07-31T15:33:17;29.30;67.70
3994;DHT22;2011;48.238;13.948;2023-07-31T15:35:47;29.30;66.40
3994;DHT22;2011;48.238;13.948;2023-07-31T15:38:14;29.10;64.50
3994;DHT22;2011;48.238;13.948;2023-07-31T15:40:41;28.60;63.80
3994;DHT22;2011;48.238;13.948;2023-07-31T15:43:09;28.40;65.90
3994;DHT22;2011;48.238;13.948;2023-07-31T15:45:41;28.10;66.10
3994;DHT22;2011;48.238;13.948;2023-07-31T15:48:09;27.90;65.90
3994;DHT22;2011;48.238;13.948;2023-07-31T15:50:36;27.90;66.70
3994;DHT22;2011;48.238;13.948;2023-07-31T15:53:05;27.90;66.80
3994;DHT22;2011;48.238;13.948;2023-07-31T15:55:33;27.90;66.50